createdAt,value
2018-12-19T00:00:14.455Z,72.71
2018-12-19T00:01:14.862Z,72.33
2018-12-19T00:02:15.269Z,71.86
2018-12-19T00:03:16.676Z,71.3
2018-12-19T00:04:17.488Z,71.77
2018-12-19T00:05:18.729Z,70.82
2018-12-19T00:06:19.138Z,71.67
2018-12-19T00:07:20.545Z,71.58
2018-12-19T00:08:21.704Z,70.82
2018-12-19T00:09:22.112Z,70.73
2018-12-19T00:10:23.519Z,70.54
2018-12-19T00:11:24.203Z,70.63
2018-12-19T00:12:25.443Z,70.73
2018-12-19T00:13:26.407Z,71.01
2018-12-19T00:14:27.524Z,71.01
2018-12-19T00:15:28.652Z,71.48
2018-12-19T00:16:29.894Z,71.67
2018-12-19T00:17:30.300Z,71.77
2018-12-19T00:18:30.723Z,72.62
2018-12-19T00:19:31.413Z,72.33
2018-12-19T00:20:32.096Z,72.71
2018-12-19T00:21:32.504Z,72.56
2018-12-19T00:22:33.191Z,72.14
2018-12-19T00:23:33.322Z,72.52
2018-12-19T00:24:34.155Z,72.99
2018-12-19T00:25:34.394Z,72.62
2018-12-19T00:26:35.081Z,72.52
2018-12-19T00:27:36.043Z,72.8
2018-12-19T00:28:36.453Z,73.09
2018-12-19T00:29:37.580Z,72.52
2018-12-19T00:30:38.991Z,72.43
2018-12-19T00:31:39.678Z,71.86
2018-12-19T00:32:40.647Z,71.3
2018-12-19T00:33:41.058Z,71.48
2018-12-19T00:34:41.897Z,71.11
2018-12-19T00:35:42.580Z,71.39
2018-12-19T00:36:42.988Z,71.48
2018-12-19T00:37:43.399Z,71.8
2018-12-19T00:38:44.360Z,72.05
2018-12-19T00:39:44.490Z,72.43
2018-12-19T00:40:45.900Z,72.14
2018-12-19T00:41:45.864Z,72.24
2018-12-19T00:42:46.999Z,71.48
2018-12-19T00:43:47.677Z,70.73
2018-12-19T00:44:48.379Z,70.44
2018-12-19T00:45:48.789Z,70.63
2018-12-19T00:46:49.512Z,70.54
2018-12-19T00:47:50.546Z,71.2
2018-12-19T00:48:51.008Z,71.58
2018-12-19T00:49:51.145Z,71.71
2018-12-19T00:50:51.547Z,70.48
2018-12-19T00:51:52.231Z,70.82
2018-12-19T00:52:52.942Z,70.44
2018-12-19T00:53:53.743Z,70.73
2018-12-19T00:54:54.125Z,70.82
2018-12-19T00:55:55.085Z,70.92
2018-12-19T00:56:55.494Z,71.04
2018-12-19T00:57:56.456Z,71.77
2018-12-19T00:58:56.863Z,71.23
2018-12-19T00:59:57.272Z,71.33
2018-12-19T01:00:57.733Z,70.76
2018-12-19T01:01:58.697Z,71.33
2018-12-19T01:02:59.105Z,71.14
2018-12-19T01:03:59.791Z,71.52
2018-12-19T01:05:00.184Z,71.11
2018-12-19T01:06:00.595Z,71.77
2018-12-19T01:07:01.839Z,71.58
2018-12-19T01:08:02.806Z,71.39
2018-12-19T01:09:03.489Z,71.67
2018-12-19T01:10:04.177Z,71.95
2018-12-19T01:11:04.583Z,71.95
2018-12-19T01:12:05.993Z,72.05
2018-12-19T01:13:06.234Z,72.14
2018-12-19T01:14:07.637Z,71.95
2018-12-19T01:15:08.028Z,71.67
2018-12-19T01:16:08.005Z,71.95
2018-12-19T01:17:08.966Z,71.86
2018-12-19T01:18:09.424Z,72.24
2018-12-19T01:19:09.831Z,72.9
2018-12-19T01:20:10.238Z,72.94
2018-12-19T01:21:10.923Z,74.04
2018-12-19T01:22:11.332Z,74.51
2018-12-19T01:23:12.467Z,75.55
2018-12-19T01:24:12.875Z,76.5
2018-12-19T01:25:13.467Z,76.4
2018-12-19T01:26:14.154Z,76.4
2018-12-19T01:27:14.677Z,77.25
2018-12-19T01:28:15.643Z,77.63
2018-12-19T04:17:22.274Z,75.78
2018-12-19T04:18:23.190Z,76.34
2018-12-19T04:19:24.110Z,76.44
2018-12-19T04:20:24.632Z,77.01
2018-12-19T04:21:25.607Z,76.44
2018-12-19T04:22:26.584Z,76.25
2018-12-19T04:23:27.107Z,76.82
2018-12-19T04:24:28.359Z,77.2
2018-12-19T04:25:29.169Z,77.48
2018-12-19T04:26:29.416Z,77.76
2018-12-19T04:27:30.402Z,78.61
2018-12-19T04:28:31.411Z,78.8
2018-12-19T04:29:31.664Z,79.33
2018-12-19T04:30:31.645Z,80.04
2018-12-19T04:31:32.892Z,79.9
2018-12-19T04:32:33.587Z,80.18
2018-12-19T04:33:34.562Z,80.08
2018-12-19T04:34:34.266Z,79.05
2018-12-19T04:35:35.402Z,79.52
2018-12-19T04:36:36.817Z,78.76
2018-12-19T04:37:37.510Z,78.48
2018-12-19T04:38:38.611Z,78.1
2018-12-19T04:39:39.577Z,77.63
2018-12-19T04:40:40.286Z,76.5
2018-12-19T04:41:40.702Z,75.55
2018-12-19T04:42:41.949Z,75.74
2018-12-19T04:43:43.366Z,75.87
2018-12-19T04:44:44.890Z,76.34
2018-12-19T04:45:45.339Z,76.06
2018-12-19T04:46:46.307Z,74.64
2018-12-19T04:47:47.002Z,73.88
2018-12-19T04:48:48.106Z,74.17
2018-12-19T04:49:48.799Z,74.07
2018-12-19T04:50:49.769Z,73.41
2018-12-19T04:51:51.029Z,72.56
2018-12-19T04:52:51.721Z,72.18
2018-12-19T04:53:53.140Z,71.8
2018-12-19T04:54:53.389Z,71.52
2018-12-19T04:55:53.799Z,71.8
2018-12-19T04:56:54.212Z,71.9
2018-12-19T04:57:54.684Z,71.61
2018-12-19T04:58:55.635Z,71.33
2018-12-19T04:59:56.886Z,71.71
2018-12-19T05:00:57.131Z,71.61
2018-12-19T05:01:57.668Z,70.76
2018-12-19T05:02:57.660Z,69.34
2018-12-19T05:03:59.099Z,69.25
2018-12-19T05:04:59.957Z,69.44
2018-12-19T05:06:01.895Z,69.25
2018-12-19T05:07:00.971Z,69.15
2018-12-19T05:08:01.827Z,68.96
2018-12-19T05:09:02.210Z,69.15
2018-12-19T05:10:02.634Z,69.15
2018-12-19T05:11:03.391Z,69.15
2018-12-19T05:12:04.357Z,69.06
2018-12-19T05:13:04.499Z,69.63
2018-12-19T05:14:05.743Z,69.15
2018-12-19T05:15:06.713Z,69.63
2018-12-19T05:16:07.130Z,70.1
2018-12-19T05:17:08.263Z,70.29
2018-12-19T05:18:08.959Z,69.72
2018-12-19T05:19:09.635Z,69.85
2018-12-19T05:20:10.439Z,69.57
2018-12-19T05:21:10.577Z,69
2018-12-19T05:22:11.713Z,68.81
2018-12-19T05:23:12.127Z,68.71
2018-12-19T05:24:12.537Z,68.33
2018-12-19T05:25:12.951Z,68.33
2018-12-19T05:26:13.641Z,67.77
2018-12-19T05:27:14.350Z,67.86
2018-12-19T05:28:15.370Z,67.77
2018-12-19T05:29:15.639Z,67.49
2018-12-19T05:30:17.441Z,67.68
2018-12-19T05:31:17.855Z,67.58
2018-12-19T05:32:18.102Z,67.39
2018-12-19T05:33:19.072Z,67.11
2018-12-19T05:34:19.488Z,67.11
2018-12-19T05:35:21.181Z,67.86
2018-12-19T05:36:21.429Z,67.58
2018-12-19T05:37:22.118Z,67.39
2018-12-19T05:38:23.366Z,67.2
2018-12-19T05:39:23.508Z,67.39
2018-12-19T05:40:23.927Z,68.05
2018-12-19T05:41:24.619Z,67.96
2018-12-19T05:42:25.311Z,67.86
2018-12-19T05:43:25.724Z,68.05
2018-12-19T05:44:26.975Z,68.33
2018-12-19T05:45:27.668Z,68.24
2018-12-19T05:46:28.642Z,68.15
2018-12-19T05:47:29.337Z,67.96
2018-12-19T05:48:30.029Z,68.15
2018-12-19T05:49:31.463Z,67.58
2018-12-19T05:50:31.875Z,67.3
2018-12-19T05:51:32.843Z,67.2
2018-12-19T05:52:33.812Z,66.82
2018-12-19T05:53:34.780Z,66.82
2018-12-19T05:54:35.917Z,67.2
2018-12-19T05:55:36.610Z,67.77
2018-12-19T05:56:37.298Z,67.14
2018-12-19T05:57:38.547Z,67.05
2018-12-19T05:58:39.238Z,67.01
2018-12-19T05:59:40.939Z,66.57
2018-12-19T06:00:41.355Z,66.16
2018-12-19T06:01:42.770Z,66.47
2018-12-19T06:02:44.459Z,66.09
2018-12-19T06:03:44.151Z,65.25
2018-12-19T06:04:44.843Z,65.15
2018-12-19T06:05:45.978Z,65.34
2018-12-19T06:06:46.391Z,65.53
2018-12-19T06:07:47.806Z,65.34
2018-12-19T06:08:47.942Z,65.25
2018-12-19T06:09:48.767Z,65.15
2018-12-19T06:10:50.015Z,65.63
2018-12-19T06:11:50.428Z,65.25
2018-12-19T06:12:50.895Z,65.25
2018-12-19T06:13:52.036Z,65.53
2018-12-19T06:14:53.004Z,65.53
2018-12-19T06:15:53.035Z,65.34
2018-12-19T06:16:53.171Z,65.34
2018-12-19T06:17:53.648Z,65.53
2018-12-19T06:18:54.897Z,65.63
2018-12-19T06:19:55.459Z,65.81
2018-12-19T06:20:56.705Z,66.19
2018-12-19T06:21:57.119Z,66.38
2018-12-19T06:22:57.812Z,66.76
2018-12-19T06:23:58.523Z,66.67
2018-12-19T06:24:58.944Z,66.76
2018-12-19T06:25:59.357Z,66.95
2018-12-19T06:27:00.327Z,67.33
2018-12-19T06:28:00.298Z,67.43
2018-12-19T06:29:00.988Z,67.8
2018-12-19T06:30:02.371Z,66.86
2018-12-19T06:31:03.062Z,67.14
2018-12-19T06:32:03.756Z,66.47
2018-12-19T06:33:04.724Z,66.76
2018-12-19T06:34:05.415Z,66.47
2018-12-19T06:35:05.836Z,66.28
2018-12-19T06:36:06.582Z,66.57
2018-12-19T06:37:07.716Z,66.19
2018-12-19T06:38:09.128Z,66.57
2018-12-19T06:39:09.542Z,66.38
2018-12-19T06:40:10.224Z,65.25
2018-12-19T06:41:10.914Z,65.44
2018-12-19T06:42:11.332Z,65.34
2018-12-19T06:43:11.467Z,65.53
2018-12-19T06:44:12.156Z,65.81
2018-12-19T06:45:13.448Z,65.44
2018-12-19T06:46:14.142Z,65.44
2018-12-19T06:47:14.558Z,65.34
2018-12-19T06:48:15.806Z,66
2018-12-19T06:49:16.777Z,66.09
2018-12-19T06:50:17.324Z,65.81
2018-12-19T06:51:20.057Z,65.44
2018-12-19T06:52:21.197Z,65.25
2018-12-19T06:53:22.336Z,66.09
2018-12-19T06:54:23.859Z,66.09
2018-12-19T06:55:24.331Z,65.91
2018-12-19T06:56:25.028Z,65.44
2018-12-19T06:57:25.173Z,66.19
2018-12-19T06:58:25.636Z,65.91
2018-12-19T06:59:27.221Z,66.67
2018-12-19T07:00:27.595Z,66.38
2018-12-19T07:01:28.731Z,66.95
2018-12-19T07:02:29.147Z,66.67
2018-12-19T07:03:29.837Z,66.47
2018-12-19T07:04:30.254Z,66.76
2018-12-19T07:05:30.949Z,66.67
2018-12-19T07:06:31.641Z,66.67
2018-12-19T07:07:31.898Z,66.67
2018-12-19T07:08:32.316Z,66.38
2018-12-19T07:09:33.733Z,66.57
2018-12-19T07:10:40.130Z,66.57
2018-12-19T07:10:46.426Z,66.57
2018-12-19T07:11:46.986Z,66.67
2018-12-19T07:12:47.960Z,66.67
2018-12-19T07:13:48.932Z,66.86
2018-12-19T07:14:49.073Z,66.76
2018-12-19T07:15:50.551Z,66.95
2018-12-19T07:16:50.724Z,67.24
2018-12-19T07:17:52.019Z,66.86
2018-12-19T07:18:52.597Z,66.38
2018-12-19T07:19:53.292Z,66.47
2018-12-19T07:20:53.712Z,65.44
2018-12-19T07:21:54.182Z,66
2018-12-19T07:22:55.321Z,66.19
2018-12-19T07:23:56.015Z,66.38
2018-12-19T07:24:57.042Z,65.44
2018-12-19T07:25:58.015Z,65.44
2018-12-19T07:26:58.154Z,65.34
2018-12-19T07:27:58.575Z,65.15
2018-12-19T07:28:59.351Z,65.91
2018-12-19T07:30:00.491Z,66.28
2018-12-19T07:31:02.223Z,65.44
2018-12-19T07:32:02.672Z,65.15
2018-12-19T07:33:03.642Z,65.53
2018-12-19T07:34:04.338Z,65.44
2018-12-19T07:35:05.347Z,64.9
2018-12-19T07:36:05.875Z,64.3
2018-12-19T07:37:08.955Z,64.33
2018-12-19T07:37:17.601Z,65.09
2018-12-19T07:38:18.455Z,65.06
2018-12-19T07:39:19.708Z,64.71
2018-12-19T07:40:20.129Z,65.09
2018-12-19T07:41:21.428Z,65.09
2018-12-19T07:42:22.678Z,64.9
2018-12-19T07:43:23.096Z,65
2018-12-19T07:44:23.792Z,64.81
2018-12-19T07:45:24.771Z,65
2018-12-19T07:46:25.656Z,64.71
2018-12-19T07:47:26.354Z,64.42
2018-12-19T07:48:26.782Z,64.9
2018-12-19T07:49:27.514Z,64.71
2018-12-19T07:50:28.511Z,64.52
2018-12-19T07:51:29.487Z,65.47
2018-12-19T07:52:29.473Z,65
2018-12-19T07:53:29.891Z,64.33
2018-12-19T07:54:30.584Z,64.14
2018-12-19T07:55:30.722Z,64.61
2018-12-19T07:56:31.181Z,64.42
2018-12-19T07:57:31.429Z,65.09
2018-12-19T07:58:31.757Z,65.09
2018-12-19T07:59:33.020Z,65.37
2018-12-19T08:00:33.209Z,65.47
2018-12-19T08:01:34.181Z,65.47
2018-12-19T08:02:34.619Z,65.19
2018-12-19T08:03:35.101Z,65.37
2018-12-19T08:04:36.238Z,65.19
2018-12-19T08:05:36.936Z,64.9
2018-12-19T08:06:37.910Z,65
2018-12-19T08:07:38.610Z,65.09
2018-12-19T08:08:39.444Z,65.47
2018-12-19T08:09:39.586Z,65.37
2018-12-19T08:10:40.281Z,65.37
2018-12-19T08:11:41.254Z,65.56
2018-12-19T08:12:41.676Z,65.09
2018-12-19T08:13:42.374Z,64.33
2018-12-19T08:14:43.074Z,65.09
2018-12-19T08:15:43.490Z,65
2018-12-19T08:16:43.909Z,64.71
2018-12-19T08:17:44.330Z,65.28
2018-12-19T08:18:45.751Z,65.56
2018-12-19T08:19:46.209Z,65.47
2018-12-19T08:20:46.630Z,65.28
2018-12-19T08:21:47.462Z,65.47
2018-12-19T08:22:47.735Z,66.03
2018-12-19T08:23:48.163Z,65.56
2018-12-19T08:24:48.864Z,65.09
2018-12-19T08:25:50.284Z,65.47
2018-12-19T08:26:50.710Z,65.56
2018-12-19T08:27:51.854Z,65.28
2018-12-19T08:28:52.683Z,65
2018-12-19T08:29:53.655Z,65.47
2018-12-19T08:30:54.642Z,65.66
2018-12-19T08:31:55.553Z,65.28
2018-12-19T08:32:55.968Z,65.47
2018-12-19T08:33:56.268Z,65.28
2018-12-19T08:34:56.411Z,65.37
2018-12-19T08:35:56.832Z,65.47
2018-12-19T08:36:57.256Z,64.81
2018-12-19T08:37:58.515Z,64.71
2018-12-19T08:38:59.166Z,65
2018-12-19T08:39:59.299Z,65.28
2018-12-19T08:41:00.409Z,65.19
2018-12-19T08:42:00.826Z,65.5
2018-12-19T08:43:00.978Z,65.09
2018-12-19T08:44:02.596Z,65.47
2018-12-19T08:45:03.396Z,65.28
2018-12-19T08:46:05.458Z,64.93
2018-12-19T08:46:16.183Z,65.22
2018-12-19T08:47:17.189Z,64.74
2018-12-19T08:48:21.275Z,64.27
2018-12-19T08:48:32.183Z,64.17
2018-12-19T08:48:44.938Z,64.46
2018-12-19T08:48:57.688Z,64.17
2018-12-19T08:49:08.004Z,64.36
2018-12-19T08:50:08.342Z,64.46
2018-12-19T08:51:09.036Z,64.65
2018-12-19T08:52:09.733Z,64.46
2018-12-19T08:53:10.431Z,64.55
2018-12-19T08:54:10.854Z,64.46
2018-12-19T08:55:11.995Z,64.55
2018-12-19T08:56:12.692Z,64.46
2018-12-19T08:57:13.096Z,64.17
2018-12-19T08:58:13.514Z,63.6
2018-12-19T08:59:14.658Z,64.55
2018-12-19T09:00:15.210Z,64.17
2018-12-19T09:01:15.629Z,64.55
2018-12-19T09:02:17.062Z,64.55
2018-12-19T09:03:17.760Z,64.36
2018-12-19T09:04:18.456Z,64.36
2018-12-19T09:04:30.495Z,64.55
2018-12-19T09:05:31.087Z,64.36
2018-12-19T09:06:32.230Z,65.31
2018-12-19T09:07:33.482Z,65.31
2018-12-19T09:08:33.460Z,65.12
2018-12-19T09:09:35.159Z,64.93
2018-12-19T09:10:36.186Z,65.59
2018-12-19T09:11:36.330Z,65.31
2018-12-19T09:12:36.763Z,64.93
2018-12-19T09:13:37.736Z,64.46
2018-12-19T09:14:38.434Z,64.65
2018-12-19T09:15:39.112Z,63.89
2018-12-19T09:16:39.532Z,64.17
2018-12-19T09:17:40.674Z,64.36
2018-12-19T09:18:41.144Z,64.36
2018-12-19T09:19:41.624Z,64.55
2018-12-19T09:20:42.040Z,64.84
2018-12-19T09:21:43.186Z,64.74
2018-12-19T09:22:43.443Z,65.12
2018-12-19T09:23:44.863Z,64.84
2018-12-19T09:24:45.842Z,65.22
2018-12-19T09:25:46.676Z,65.03
2018-12-19T09:26:47.097Z,65.12
2018-12-19T09:27:48.240Z,65.03
2018-12-19T09:28:49.382Z,65.03
2018-12-19T09:29:49.809Z,64.93
2018-12-19T09:30:50.958Z,64.36
2018-12-19T09:31:51.407Z,64.17
2018-12-19T09:32:53.731Z,64.74
2018-12-19T09:33:54.866Z,64.93
2018-12-19T09:34:56.287Z,65.41
2018-12-19T09:35:57.399Z,64.93
2018-12-19T09:36:57.542Z,64.93
2018-12-19T09:37:57.962Z,64.84
2018-12-19T09:38:58.415Z,64.46
2018-12-19T09:39:59.113Z,64.59
2018-12-19T09:40:59.830Z,64.27
2018-12-19T09:42:00.529Z,64.49
2018-12-19T09:43:01.509Z,64.01
2018-12-19T09:44:01.491Z,63.82
2018-12-19T09:45:01.919Z,64.11
2018-12-19T09:46:02.478Z,64.01
2018-12-19T09:47:03.175Z,63.82
2018-12-19T09:48:03.873Z,63.64
2018-12-19T09:49:04.294Z,63.26
2018-12-19T09:49:16.610Z,63.07
2018-12-19T09:50:17.057Z,63.17
2018-12-19T09:51:18.202Z,63.35
2018-12-19T09:52:18.626Z,62.5
2018-12-19T09:53:19.324Z,63.07
2018-12-19T09:54:20.025Z,63.35
2018-12-19T09:55:21.445Z,63.26
2018-12-19T09:56:22.147Z,63.26
2018-12-19T09:57:23.123Z,63.17
2018-12-19T09:58:23.569Z,63.26
2018-12-19T09:59:24.098Z,63.17
2018-12-19T10:00:24.763Z,62.78
2018-12-19T10:01:24.909Z,62.31
2018-12-19T10:02:25.328Z,62.4
2018-12-19T10:03:26.024Z,62.5
2018-12-19T10:04:26.446Z,62.97
2018-12-19T10:05:27.590Z,63.17
2018-12-19T10:06:29.015Z,63.35
2018-12-19T10:07:30.479Z,63.45
2018-12-19T10:08:31.462Z,62.88
2018-12-19T10:09:32.292Z,62.31
2018-12-19T10:10:32.725Z,61.93
2018-12-19T10:11:33.421Z,62.31
2018-12-19T10:12:34.398Z,62.4
2018-12-19T10:13:35.563Z,62.88
2018-12-19T10:14:36.538Z,63.17
2018-12-19T10:15:37.284Z,63.26
2018-12-19T10:16:38.260Z,63.17
2018-12-19T10:17:42.038Z,62.59
2018-12-19T10:18:43.455Z,63.26
2018-12-19T10:19:43.433Z,62.5
2018-12-19T10:20:44.256Z,63.17
2018-12-19T10:21:44.678Z,63.17
2018-12-19T10:22:45.772Z,63.45
2018-12-19T10:23:47.111Z,63.07
2018-12-19T10:24:50.016Z,63.54
2018-12-19T10:25:49.030Z,63.45
2018-12-19T10:26:49.452Z,64.2
2018-12-19T10:27:50.152Z,64.59
2018-12-19T10:28:50.852Z,64.59
2018-12-19T10:29:51.307Z,64.49
2018-12-19T10:30:51.708Z,64.78
2018-12-19T10:31:52.407Z,64.4
2018-12-19T10:32:53.108Z,64.87
2018-12-19T10:33:53.805Z,64.97
2018-12-19T10:34:53.784Z,65.06
2018-12-19T10:35:54.200Z,65.63
2018-12-19T10:36:55.679Z,66.58
2018-12-19T10:37:55.930Z,65.91
2018-12-19T10:38:56.407Z,65.72
2018-12-19T10:39:56.986Z,65.53
2018-12-19T10:40:57.572Z,65.44
2018-12-19T10:41:57.993Z,65.44
2018-12-19T10:42:58.687Z,65.34
2018-12-19T10:43:59.106Z,65.34
2018-12-19T10:44:59.524Z,65.34
2018-12-19T10:46:01.218Z,65.16
2018-12-19T10:47:00.970Z,65.16
2018-12-19T10:48:02.502Z,65.06
2018-12-19T10:49:02.918Z,65.16
2018-12-19T10:50:03.336Z,65.25
2018-12-19T10:51:03.607Z,65.53
2018-12-19T10:52:04.302Z,65.06
2018-12-19T10:53:04.749Z,65.34
2018-12-19T10:54:05.181Z,65.06
2018-12-19T10:55:05.601Z,65.06
2018-12-19T10:56:07.303Z,64.59
2018-12-19T10:57:07.927Z,64.78
2018-12-19T10:58:08.681Z,64.78
2018-12-19T10:59:09.245Z,64.59
2018-12-19T11:00:10.308Z,64.78
2018-12-19T11:01:10.374Z,64.68
2018-12-19T11:02:11.146Z,64.59
2018-12-19T11:03:11.131Z,64.2
2018-12-19T11:04:12.553Z,64.49
2018-12-19T11:05:13.984Z,64.3
2018-12-19T11:06:14.404Z,64.3
2018-12-19T11:07:15.245Z,64.68
2018-12-19T11:08:16.216Z,64.49
2018-12-19T11:09:16.658Z,64.68
2018-12-19T11:10:17.079Z,64.68
2018-12-19T11:11:17.473Z,64.97
2018-12-19T11:12:19.684Z,65.34
2018-12-19T11:13:19.732Z,65.53
2018-12-19T11:14:19.701Z,65.06
2018-12-19T11:15:20.675Z,64.87
2018-12-19T11:16:21.149Z,64.78
2018-12-19T11:17:22.127Z,65.53
2018-12-19T11:18:22.563Z,65.06
2018-12-19T11:19:23.305Z,64.78
2018-12-19T11:20:24.051Z,65.06
2018-12-19T11:21:25.048Z,65.53
2018-12-19T11:22:26.193Z,66.39
2018-12-19T11:23:27.613Z,65.72
2018-12-19T11:24:30.537Z,66.2
2018-12-19T11:25:30.352Z,65.82
2018-12-19T11:26:30.779Z,66.01
2018-12-19T11:27:31.195Z,66.48
2018-12-19T11:28:32.170Z,66.04
2018-12-19T11:29:32.318Z,66.01
2018-12-19T11:30:33.526Z,65.56
2018-12-19T11:31:34.388Z,65.28
2018-12-19T11:32:35.094Z,65
2018-12-19T11:33:35.513Z,65.28
2018-12-19T11:34:35.954Z,64.52
2018-12-19T11:35:36.384Z,64.62
2018-12-19T11:36:37.087Z,64.71
2018-12-19T11:37:37.232Z,65.19
2018-12-19T11:38:38.227Z,64.43
2018-12-19T11:39:38.927Z,63.95
2018-12-19T11:40:39.628Z,63.86
2018-12-19T11:41:40.384Z,64.05
2018-12-19T11:42:41.526Z,63.86
2018-12-19T11:43:42.289Z,63.76
2018-12-19T11:44:43.324Z,63.48
2018-12-19T11:45:44.591Z,63.86
2018-12-19T11:46:44.758Z,63.67
2018-12-19T11:47:45.900Z,64.43
2018-12-19T11:48:47.319Z,63.76
2018-12-19T11:49:48.017Z,63.95
2018-12-19T11:50:48.714Z,64.14
2018-12-19T11:51:49.624Z,64.14
2018-12-19T11:52:51.633Z,63.76
2018-12-19T11:53:51.040Z,63.86
2018-12-19T11:54:51.468Z,63.95
2018-12-19T11:55:52.168Z,64.05
2018-12-19T11:56:52.868Z,64.14
2018-12-19T11:57:53.294Z,63.95
2018-12-19T11:58:54.630Z,63.95
2018-12-19T11:59:55.054Z,63.95
2018-12-19T12:00:55.037Z,63.95
2018-12-19T12:01:56.156Z,63.95
2018-12-19T12:02:56.796Z,64.52
2018-12-19T12:03:57.497Z,64.52
2018-12-19T12:04:57.394Z,64.52
2018-12-19T12:05:57.813Z,64.52
2018-12-19T12:06:58.511Z,64.52
2018-12-19T12:07:59.489Z,65
2018-12-19T12:09:00.539Z,65.47
2018-12-19T12:10:01.440Z,65.37
2018-12-19T12:11:01.698Z,65.66
2018-12-19T12:12:02.813Z,65.47
2018-12-19T12:13:03.519Z,65.47
2018-12-19T12:14:04.268Z,65.66
2018-12-19T12:15:05.249Z,66.14
2018-12-19T12:16:06.246Z,66.14
2018-12-19T12:17:06.688Z,66.04
2018-12-19T12:18:07.142Z,65.19
2018-12-19T12:19:07.700Z,64.43
2018-12-19T12:20:08.470Z,65.56
2018-12-19T12:21:09.168Z,65.66
2018-12-19T12:22:09.695Z,65.75
2018-12-19T12:23:10.677Z,65.19
2018-12-19T12:24:11.886Z,64.9
2018-12-19T12:25:12.894Z,64.24
2018-12-19T12:26:13.592Z,64.05
2018-12-19T12:27:14.315Z,63.7
2018-12-19T12:28:14.518Z,63.76
2018-12-19T12:29:15.683Z,64.56
2018-12-19T12:30:16.270Z,64.65
2018-12-19T12:31:16.825Z,64.56
2018-12-19T12:32:17.806Z,63.7
2018-12-19T12:33:18.233Z,63.23
2018-12-19T12:34:18.934Z,63.42
2018-12-19T12:35:19.922Z,63.04
2018-12-19T12:36:20.490Z,63.04
2018-12-19T12:37:21.535Z,62.46
2018-12-19T12:38:22.140Z,62.85
2018-12-19T12:39:23.409Z,62.75
2018-12-19T12:40:23.382Z,62.94
2018-12-19T12:41:24.637Z,62.37
2018-12-19T12:42:25.195Z,63.42
2018-12-19T12:43:26.615Z,62.94
2018-12-19T12:44:26.702Z,62.46
2018-12-19T12:45:27.842Z,62.94
2018-12-19T12:46:28.822Z,62.37
2018-12-19T12:47:29.570Z,62.27
2018-12-19T12:48:30.550Z,61.8
2018-12-19T12:49:31.250Z,62.66
2018-12-19T12:50:31.396Z,62.56
2018-12-19T12:51:31.820Z,62.56
2018-12-19T12:52:32.653Z,62.46
2018-12-19T12:53:33.072Z,62.56
2018-12-19T12:54:33.498Z,62.37
2018-12-19T12:55:35.719Z,62.12
2018-12-19T12:56:35.321Z,62.02
2018-12-19T12:57:36.252Z,62.31
2018-12-19T12:58:36.246Z,62.08
2018-12-19T12:59:37.347Z,62.46
2018-12-19T13:00:39.981Z,62.12
2018-12-19T13:01:40.382Z,61.71
2018-12-19T13:02:41.396Z,62.66
2018-12-19T13:03:42.117Z,62.75
2018-12-19T13:04:42.471Z,62.46
2018-12-19T13:05:43.013Z,62.37
2018-12-19T13:06:43.022Z,62.31
2018-12-19T13:07:47.562Z,62.46
2018-12-19T13:07:56.552Z,62.59
2018-12-19T13:08:56.297Z,62.31
2018-12-19T13:09:57.332Z,63.17
2018-12-19T13:10:58.042Z,62.5
2018-12-19T13:12:00.379Z,62.59
2018-12-19T13:13:01.438Z,62.59
2018-12-19T13:14:01.850Z,62.59
2018-12-19T13:15:02.488Z,62.21
2018-12-19T13:16:03.188Z,61.93
2018-12-19T13:17:03.884Z,62.12
2018-12-19T13:18:05.135Z,61.74
2018-12-19T13:19:06.371Z,61.74
2018-12-19T13:20:06.689Z,61.83
2018-12-19T13:21:08.109Z,61.65
2018-12-19T13:22:09.172Z,61.83
2018-12-19T13:23:10.050Z,62.02
2018-12-19T13:24:10.797Z,62.02
2018-12-19T13:25:11.770Z,62.4
2018-12-19T13:26:12.917Z,62.4
2018-12-19T13:27:13.338Z,62.27
2018-12-19T13:28:14.150Z,62.08
2018-12-19T13:29:14.303Z,62.5
2018-12-19T13:30:15.267Z,62.18
2018-12-19T13:31:16.170Z,61.99
2018-12-19T13:32:16.588Z,62.18
2018-12-19T13:33:17.731Z,61.9
2018-12-19T13:34:19.352Z,62.46
2018-12-19T13:35:20.051Z,62.08
2018-12-19T13:36:19.978Z,61.8
2018-12-19T13:37:20.507Z,62.37
2018-12-19T13:38:20.949Z,62.56
2018-12-19T13:39:22.359Z,61.99
2018-12-19T13:40:24.604Z,61.9
2018-12-19T13:41:23.205Z,62.08
2018-12-19T13:42:23.900Z,61.99
2018-12-19T13:43:24.879Z,61.99
2018-12-19T13:44:25.598Z,61.71
2018-12-19T13:45:26.295Z,61.23
2018-12-19T13:46:26.775Z,61.99
2018-12-19T13:47:27.528Z,61.99
2018-12-19T13:48:28.670Z,62.18
2018-12-19T13:49:30.496Z,61.9
2018-12-19T13:50:33.070Z,62.18
2018-12-19T13:51:31.838Z,62.18
2018-12-19T13:52:33.099Z,61.99
2018-12-19T13:53:33.346Z,61.61
2018-12-19T13:54:34.916Z,61.61
2018-12-19T13:55:35.452Z,62.27
2018-12-19T13:56:39.110Z,62.27
2018-12-19T13:57:38.081Z,62.08
2018-12-19T13:58:39.057Z,61.8
2018-12-19T13:59:39.191Z,61.71
2018-12-19T14:00:40.169Z,61.61
2018-12-19T14:01:40.866Z,61.8
2018-12-19T14:02:41.419Z,61.9
2018-12-19T14:03:42.117Z,61.8
2018-12-19T14:04:46.325Z,61.8
2018-12-19T14:05:44.589Z,61.52
2018-12-19T14:06:45.289Z,61.71
2018-12-19T14:07:45.710Z,61.42
2018-12-19T14:08:47.084Z,61.8
2018-12-19T14:09:47.217Z,61.71
2018-12-19T14:10:48.314Z,61.71
2018-12-19T14:11:49.374Z,61.8
2018-12-19T14:12:50.513Z,61.9
2018-12-19T14:13:51.690Z,62.08
2018-12-19T14:14:52.984Z,61.9
2018-12-19T14:15:53.146Z,61.8
2018-12-19T14:16:54.180Z,61.71
2018-12-19T14:17:54.878Z,62.18
2018-12-19T14:18:55.855Z,62.18
2018-12-19T14:19:58.268Z,62.08
2018-12-19T14:20:57.487Z,62.18
2018-12-19T14:21:58.739Z,61.99
2018-12-19T14:22:59.506Z,62.27
2018-12-19T14:24:00.939Z,63.13
2018-12-19T14:25:01.187Z,63.23
2018-12-19T14:26:02.169Z,63.42
2018-12-19T14:27:03.142Z,63.13
2018-12-19T14:28:03.842Z,63.51
2018-12-19T14:29:04.836Z,63.32
2018-12-19T14:30:05.111Z,63.42
2018-12-19T14:31:05.810Z,63.13
2018-12-19T14:32:06.237Z,63.23
2018-12-19T14:33:07.377Z,63.42
2018-12-19T14:34:09.074Z,64.17
2018-12-19T14:35:09.489Z,63.42
2018-12-19T14:36:10.485Z,63.51
2018-12-19T14:37:10.912Z,63.23
2018-12-19T14:38:12.342Z,63.23
2018-12-19T14:39:13.316Z,63.32
2018-12-19T14:40:13.803Z,63.6
2018-12-19T14:41:17.464Z,63.32
2018-12-19T14:42:19.928Z,64.08
2018-12-19T14:43:20.623Z,64.46
2018-12-19T14:44:21.043Z,64.08
2018-12-19T14:45:21.755Z,63.7
2018-12-19T14:46:21.957Z,63.42
2018-12-19T14:47:22.931Z,63.51
2018-12-19T14:48:23.908Z,63.32
2018-12-19T14:49:24.327Z,63.6
2018-12-19T14:50:28.100Z,64.37
2018-12-19T14:50:36.999Z,63.95
2018-12-19T14:51:37.827Z,64.08
2018-12-19T14:52:38.695Z,64.08
2018-12-19T14:53:39.838Z,63.95
2018-12-19T14:54:40.293Z,64.27
2018-12-19T14:55:41.025Z,64.27
2018-12-19T14:56:41.531Z,64.37
2018-12-19T14:57:43.777Z,64.46
2018-12-19T14:58:43.259Z,64.56
2018-12-19T14:59:47.214Z,64.46
2018-12-19T14:59:58.364Z,64.65
2018-12-19T15:00:11.933Z,64.46
2018-12-19T15:00:24.545Z,64.56
2018-12-19T15:00:35.981Z,64.65
2018-12-19T15:01:36.176Z,64.37
2018-12-19T15:02:36.872Z,64.56
2018-12-19T15:03:37.017Z,65.03
2018-12-19T15:04:37.779Z,64.56
2018-12-19T15:05:39.308Z,64.08
2018-12-19T15:06:39.448Z,64.08
2018-12-19T15:07:39.876Z,63.89
2018-12-19T15:08:41.124Z,64.46
2018-12-19T15:09:41.824Z,64.27
2018-12-19T15:10:42.557Z,63.98
2018-12-19T15:11:42.674Z,63.79
2018-12-19T15:12:43.924Z,63.89
2018-12-19T15:13:44.629Z,63.79
2018-12-19T15:14:45.606Z,64.08
2018-12-19T15:15:46.025Z,64.08
2018-12-19T15:16:47.274Z,64.08
2018-12-19T15:17:48.255Z,63.98
2018-12-19T15:18:48.231Z,63.79
2018-12-19T15:19:48.650Z,63.98
2018-12-19T15:20:49.073Z,64.08
2018-12-19T15:21:49.950Z,64.24
2018-12-19T15:22:51.372Z,64.37
2018-12-19T15:23:51.792Z,64.94
2018-12-19T15:24:52.068Z,65.09
2018-12-19T15:25:53.046Z,64.9
2018-12-19T15:26:53.744Z,64.62
2018-12-19T15:27:54.719Z,64.71
2018-12-19T15:28:55.484Z,64.52
2018-12-19T15:29:56.455Z,64.43
2018-12-19T15:30:56.152Z,65.09
2018-12-19T15:31:57.385Z,65.66
2018-12-19T15:32:58.077Z,65.56
2018-12-19T15:33:58.774Z,65.56
2018-12-19T15:34:59.915Z,65.37
2018-12-19T15:36:01.053Z,65.56
2018-12-19T15:37:01.254Z,65.47
2018-12-19T15:38:02.057Z,65.85
2018-12-19T15:39:02.750Z,65.66
2018-12-19T15:40:02.888Z,65.37
2018-12-19T15:41:03.585Z,65.56
2018-12-19T15:42:04.410Z,65.66